Terminal Aerodrome Forecast
Issued by NWS Wilmington, OH

Current Version | Previous Version | Text Only | Print | Product List | Glossary Off
Versions: 1 2 3 4 5 6 7 8 9 10 11 12 13 14 15 16 17

000
FTUS41 KILN 220100 AAA
TAFDAY
TAF AMD
KDAY 220151Z 2202/2224 25010KT P6SM SCT050 OVC100
     FM220500 24012KT P6SM -SHRA BKN040 OVC100
      TEMPO 2206/2209 4SM -SHRA BKN030CB
     FM221000 30013KT P6SM OVC020
     FM221400 32018G26KT P6SM SCT035=

USA.gov is the U.S. government's official web portal to all federal, state and local government web resources and services.